createdAt,value
2023-02-15T00:01:31.365Z,79.93
2023-02-15T00:03:57.966Z,80.67
2023-02-15T00:06:24.817Z,80.45
2023-02-15T00:08:51.524Z,78.74
2023-02-15T00:11:38.891Z,79.16
2023-02-15T00:14:09.180Z,78.27
2023-02-15T00:16:36.319Z,78.01
2023-02-15T00:19:03.548Z,77.84
2023-02-15T00:21:31.604Z,78.49
2023-02-15T00:23:59.145Z,78.25
2023-02-15T00:26:26.047Z,78.01
2023-02-15T00:28:52.868Z,77.95
2023-02-15T00:31:19.729Z,76.81
2023-02-15T00:33:46.494Z,77.99
2023-02-15T00:36:13.385Z,77.74
2023-02-15T00:38:40.250Z,77.09
2023-02-15T00:41:07.814Z,74.57
2023-02-15T00:43:35.087Z,74.33
2023-02-15T00:46:02.293Z,77.53
2023-02-15T00:48:29.329Z,77.39
2023-02-15T00:50:59.692Z,76.97
2023-02-15T00:53:27.045Z,77.76
2023-02-15T00:55:54.059Z,79.02
2023-02-15T00:58:20.657Z,81.31
2023-02-15T01:00:47.786Z,81.28
2023-02-15T01:03:15.815Z,83.40
2023-02-15T01:05:42.561Z,81.58
2023-02-15T01:08:09.241Z,80.12
2023-02-15T01:10:36.152Z,78.71
2023-02-15T01:13:02.805Z,78.54
2023-02-15T01:15:29.585Z,79.03
2023-02-15T01:17:56.559Z,80.35
2023-02-15T01:20:25.272Z,81.03
2023-02-15T01:22:52.577Z,81.58
2023-02-15T01:25:19.976Z,81.35
2023-02-15T01:27:46.733Z,80.24
2023-02-15T01:30:14.045Z,81.26
2023-02-15T01:32:40.944Z,82.31
2023-02-15T01:35:07.949Z,82.65
2023-02-15T01:37:34.792Z,83.62
2023-02-15T01:40:02.237Z,83.37
2023-02-15T01:42:29.334Z,83.31
2023-02-15T01:45:00.316Z,84.56
2023-02-15T01:47:29.957Z,85.23
2023-02-15T01:50:15.084Z,85.21
2023-02-15T01:52:45.668Z,85.35
2023-02-15T01:55:13.632Z,84.41
2023-02-15T01:57:40.448Z,85.36
2023-02-15T02:00:07.590Z,86.91
2023-02-15T02:02:34.208Z,87.85
2023-02-15T02:05:07.407Z,86.75
2023-02-15T02:07:36.205Z,88.17
2023-02-15T02:10:03.861Z,86.83
2023-02-15T02:12:30.842Z,84.53
2023-02-15T02:14:57.563Z,83.59
2023-02-15T02:17:48.936Z,81.07
2023-02-15T02:20:43.568Z,79.89
2023-02-15T02:23:25.273Z,81.24
2023-02-15T02:25:51.914Z,82.61
2023-02-15T02:28:18.435Z,83.98
2023-02-15T02:31:09.219Z,83.20
2023-02-15T02:33:53.837Z,83.36
2023-02-15T02:36:43.217Z,83.35
2023-02-15T02:39:23.020Z,84.69
2023-02-15T02:41:49.613Z,84.27
2023-02-15T02:44:46.465Z,82.15
2023-02-15T02:47:30.613Z,82.40
2023-02-15T02:50:08.572Z,81.42
2023-02-15T02:53:01.644Z,81.51
2023-02-15T02:55:43.953Z,80.05
2023-02-15T02:58:37.321Z,80.38
2023-02-15T03:01:09.936Z,81.67
2023-02-15T03:03:39.121Z,79.69
2023-02-15T03:06:42.428Z,80.31
2023-02-15T03:09:19.695Z,79.54
2023-02-15T03:11:46.497Z,81.73
2023-02-15T03:14:14.267Z,81.23
2023-02-15T03:16:41.252Z,80.01
2023-02-15T03:19:10.788Z,80.04
2023-02-15T03:21:50.505Z,79.61
2023-02-15T03:24:21.784Z,78.47
2023-02-15T03:26:49.456Z,77.36
2023-02-15T03:29:16.559Z,77.81
2023-02-15T03:31:44.519Z,79.45
2023-02-15T03:34:12.736Z,80.94
2023-02-15T03:36:51.700Z,83.55
2023-02-15T03:39:31.185Z,82.63
2023-02-15T03:42:13.431Z,83.58
2023-02-15T03:44:59.610Z,82.70
2023-02-15T03:47:31.615Z,81.42
2023-02-15T03:50:33.918Z,82.41
2023-02-15T03:53:01.256Z,82.38
2023-02-15T03:55:28.440Z,82.14
2023-02-15T03:58:13.844Z,82.32
2023-02-15T04:01:02.720Z,81.19
2023-02-15T04:04:00.149Z,82.60
2023-02-15T04:06:26.773Z,81.00
2023-02-15T04:09:12.158Z,81.10
2023-02-15T04:11:38.825Z,81.66
2023-02-15T04:14:25.421Z,81.62
2023-02-15T04:16:52.219Z,81.10
2023-02-15T04:19:37.522Z,82.02
2023-02-15T04:22:22.426Z,81.60
2023-02-15T04:25:07.625Z,82.48
2023-02-15T04:27:34.411Z,80.81
2023-02-15T04:30:01.142Z,80.14
2023-02-15T04:32:28.469Z,79.47
2023-02-15T04:34:55.162Z,80.50
2023-02-15T04:37:21.839Z,81.01
2023-02-15T04:39:48.771Z,81.02
2023-02-15T04:42:15.416Z,80.78
2023-02-15T04:44:42.826Z,82.16
2023-02-15T04:47:09.538Z,82.39
2023-02-15T04:49:36.249Z,82.20
2023-02-15T04:52:02.899Z,82.42
2023-02-15T04:54:29.646Z,82.57
2023-02-15T04:56:56.336Z,83.00
2023-02-15T04:59:22.947Z,83.31
2023-02-15T05:01:50.424Z,83.58
2023-02-15T05:04:17.274Z,83.95
2023-02-15T05:06:43.981Z,83.12
2023-02-15T05:09:12.294Z,83.18
2023-02-15T05:11:39.043Z,81.90
2023-02-15T05:14:05.707Z,82.26
2023-02-15T05:16:32.518Z,84.09
2023-02-15T05:18:59.203Z,86.46
2023-02-15T05:21:25.841Z,87.63
2023-02-15T05:23:52.525Z,87.10
2023-02-15T05:26:39.640Z,86.48
2023-02-15T05:29:06.418Z,86.50
2023-02-15T05:31:33.528Z,84.08
2023-02-15T05:34:00.198Z,84.25
2023-02-15T05:36:26.958Z,83.80
2023-02-15T05:38:53.729Z,83.77
2023-02-15T05:41:20.343Z,85.55
2023-02-15T05:43:47.088Z,84.99
2023-02-15T05:46:13.812Z,85.72
2023-02-15T05:48:40.553Z,85.15
2023-02-15T05:51:14.073Z,85.33
2023-02-15T05:53:40.739Z,85.15
2023-02-15T05:56:11.927Z,84.31
2023-02-15T05:58:39.917Z,84.30
2023-02-15T06:01:16.812Z,83.99
2023-02-15T06:03:43.632Z,85.12
2023-02-15T06:06:10.304Z,85.79
2023-02-15T06:08:37.421Z,86.65
2023-02-15T06:11:04.117Z,85.90
2023-02-15T06:13:31.137Z,85.28
2023-02-15T06:15:57.746Z,85.08
2023-02-15T06:18:24.394Z,85.16
2023-02-15T06:20:51.162Z,84.34
2023-02-15T06:23:17.808Z,84.76
2023-02-15T06:25:45.744Z,83.33
2023-02-15T06:28:12.362Z,81.79
2023-02-15T06:30:39.047Z,81.80
2023-02-15T06:33:05.822Z,81.95
2023-02-15T06:35:32.530Z,81.24
2023-02-15T06:37:59.314Z,82.21
2023-02-15T06:40:25.955Z,82.24
2023-02-15T06:42:52.676Z,82.11
2023-02-15T06:45:19.383Z,82.52
2023-02-15T06:47:46.070Z,82.13
2023-02-15T06:50:12.781Z,82.48
2023-02-15T06:52:39.525Z,81.97
2023-02-15T06:55:07.202Z,82.66
2023-02-15T06:57:34.267Z,82.25
2023-02-15T07:00:01.083Z,83.35
2023-02-15T07:02:27.851Z,83.63
2023-02-15T07:04:54.633Z,83.97
2023-02-15T07:07:21.363Z,84.58
2023-02-15T07:09:48.189Z,84.48
2023-02-15T07:12:33.253Z,84.60
2023-02-15T07:15:00.179Z,84.46
2023-02-15T07:17:37.060Z,84.71
2023-02-15T07:20:09.052Z,83.97
2023-02-15T07:22:37.335Z,83.46
2023-02-15T07:25:05.353Z,84.38
2023-02-15T07:27:32.628Z,84.54
2023-02-15T07:29:59.738Z,83.67
2023-02-15T07:32:29.882Z,84.64
2023-02-15T07:34:56.629Z,85.15
2023-02-15T07:37:23.423Z,84.64
2023-02-15T07:39:50.200Z,84.91
2023-02-15T07:42:16.876Z,84.53
2023-02-15T07:44:43.568Z,84.48
2023-02-15T07:47:10.253Z,84.31
2023-02-15T07:49:37.108Z,84.58
2023-02-15T07:52:03.820Z,84.93
2023-02-15T07:54:30.706Z,84.08
2023-02-15T07:56:57.337Z,84.60
2023-02-15T07:59:25.151Z,84.17
2023-02-15T08:01:53.901Z,84.19
2023-02-15T08:04:20.602Z,82.97
2023-02-15T08:06:47.293Z,82.67
2023-02-15T08:09:14.072Z,83.00
2023-02-15T08:11:41.748Z,83.42
2023-02-15T08:14:09.330Z,83.40
2023-02-15T08:16:47.119Z,82.12
2023-02-15T08:19:23.581Z,81.58
2023-02-15T08:21:52.328Z,81.78
2023-02-15T08:24:21.140Z,81.39
2023-02-15T08:26:48.711Z,80.56
2023-02-15T08:29:16.144Z,80.22
2023-02-15T08:31:43.230Z,78.02
2023-02-15T08:34:11.511Z,77.36
2023-02-15T08:36:38.439Z,76.69
2023-02-15T08:39:06.026Z,76.36
2023-02-15T08:41:35.028Z,76.95
2023-02-15T08:44:03.037Z,76.08
2023-02-15T08:46:31.916Z,74.72
2023-02-15T08:48:58.591Z,76.36
2023-02-15T08:51:26.974Z,72.98
2023-02-15T08:53:55.062Z,73.58
2023-02-15T08:56:26.911Z,73.11
2023-02-15T08:58:54.190Z,71.78
2023-02-15T09:01:23.129Z,72.69
2023-02-15T09:03:51.431Z,72.61
2023-02-15T09:06:18.198Z,72.13
2023-02-15T09:08:44.900Z,69.79
2023-02-15T09:11:23.842Z,68.62
2023-02-15T09:14:00.806Z,69.35
2023-02-15T09:16:29.534Z,68.35
2023-02-15T09:18:58.461Z,67.28
2023-02-15T09:21:25.777Z,66.85
2023-02-15T09:23:53.671Z,67.56
2023-02-15T09:26:21.361Z,66.76
2023-02-15T09:28:49.405Z,68.40
2023-02-15T09:31:16.823Z,66.85
2023-02-15T09:33:44.702Z,66.30
2023-02-15T09:36:22.918Z,65.31
2023-02-15T09:38:58.382Z,65.92
2023-02-15T09:41:28.083Z,65.17
2023-02-15T09:44:06.661Z,65.98
2023-02-15T09:46:46.226Z,64.82
2023-02-15T09:49:24.472Z,64.31
2023-02-15T09:52:43.393Z,63.96
2023-02-15T09:55:32.515Z,64.42
2023-02-15T09:58:06.380Z,63.70
2023-02-15T10:00:42.601Z,63.45
2023-02-15T10:03:46.734Z,64.11
2023-02-15T10:06:16.875Z,64.23
2023-02-15T10:09:40.661Z,65.08
2023-02-15T10:12:22.206Z,64.02
2023-02-15T10:15:08.334Z,64.43
2023-02-15T10:17:51.231Z,65.03
2023-02-15T10:20:40.038Z,63.12
2023-02-15T10:23:37.971Z,63.60
2023-02-15T10:26:16.990Z,63.18
2023-02-15T10:28:53.598Z,64.22
2023-02-15T10:31:33.914Z,60.42
2023-02-15T10:34:12.796Z,59.52
2023-02-15T10:36:58.881Z,59.01
2023-02-15T10:39:55.048Z,60.04
2023-02-15T10:42:25.173Z,59.46
2023-02-15T10:44:57.464Z,58.68
2023-02-15T10:48:01.590Z,59.79
2023-02-15T10:50:28.196Z,56.88
2023-02-15T10:53:20.260Z,55.57
2023-02-15T10:56:04.779Z,56.42
2023-02-15T10:58:40.104Z,55.99
2023-02-15T11:01:21.007Z,55.82
2023-02-15T11:03:53.521Z,54.84
2023-02-15T11:06:20.568Z,54.06
2023-02-15T11:09:04.929Z,57.59
2023-02-15T11:11:43.417Z,55.39
2023-02-15T11:14:30.202Z,56.67
2023-02-15T11:17:00.231Z,57.11
2023-02-15T11:19:41.922Z,56.16
2023-02-15T11:22:10.627Z,57.89
2023-02-15T11:24:43.341Z,55.16
2023-02-15T11:27:23.053Z,57.80
2023-02-15T11:30:10.522Z,56.33
2023-02-15T11:32:42.014Z,55.51
2023-02-15T11:35:21.583Z,55.72
2023-02-15T11:37:57.501Z,51.32
2023-02-15T11:40:33.522Z,52.16
2023-02-15T11:43:03.204Z,52.45
2023-02-15T11:45:34.025Z,52.88
2023-02-15T11:48:01.079Z,50.46
2023-02-15T11:50:32.458Z,49.55
2023-02-15T11:53:07.572Z,51.43
2023-02-15T11:55:36.117Z,52.11
2023-02-15T11:58:39.139Z,50.01
2023-02-15T12:01:17.742Z,50.39
2023-02-15T12:03:45.618Z,51.81
2023-02-15T12:06:39.783Z,52.27
2023-02-15T12:09:33.277Z,52.53
2023-02-15T12:12:22.464Z,51.34
2023-02-15T12:14:50.732Z,52.21
2023-02-15T12:17:17.449Z,51.47
2023-02-15T12:19:44.736Z,52.18
2023-02-15T12:22:26.422Z,51.72
2023-02-15T12:24:55.508Z,51.18
2023-02-15T12:27:33.299Z,51.34
2023-02-15T12:30:08.874Z,51.99
2023-02-15T12:32:37.205Z,52.92
2023-02-15T12:35:10.707Z,51.93
2023-02-15T12:37:37.448Z,51.73
2023-02-15T12:40:21.149Z,52.64
2023-02-15T12:42:47.797Z,52.11
2023-02-15T12:45:31.827Z,51.71
2023-02-15T12:48:13.572Z,52.24
2023-02-15T12:50:47.545Z,52.97
2023-02-15T12:53:31.801Z,52.27
2023-02-15T12:56:02.737Z,52.32
2023-02-15T12:58:31.333Z,51.41
2023-02-15T13:01:10.248Z,50.08
2023-02-15T13:03:38.870Z,50.62
2023-02-15T13:06:09.458Z,50.73
2023-02-15T13:08:40.576Z,50.49
2023-02-15T13:11:11.374Z,50.77
2023-02-15T13:13:56.320Z,50.12
2023-02-15T13:16:43.211Z,50.84
2023-02-15T13:19:34.593Z,49.13
2023-02-15T13:22:03.350Z,49.03
2023-02-15T13:24:40.848Z,49.81
2023-02-15T13:27:15.769Z,50.06
2023-02-15T13:29:54.337Z,49.13
2023-02-15T13:32:38.876Z,48.65
2023-02-15T13:35:08.098Z,49.04
2023-02-15T13:37:47.205Z,49.80
2023-02-15T13:40:36.678Z,50.12
2023-02-15T13:43:12.839Z,50.80
2023-02-15T13:45:48.709Z,49.86
2023-02-15T13:48:31.413Z,49.19
2023-02-15T13:51:12.897Z,49.27
2023-02-15T13:54:16.444Z,50.23
2023-02-15T13:57:35.169Z,51.79
2023-02-15T14:00:21.973Z,52.13
2023-02-15T14:02:51.400Z,53.50
2023-02-15T14:05:35.777Z,52.28
2023-02-15T14:08:21.094Z,53.48
2023-02-15T14:11:21.324Z,53.27
2023-02-15T14:14:06.764Z,52.80
2023-02-15T14:17:07.309Z,52.82
2023-02-15T14:19:50.997Z,52.72
2023-02-15T14:22:37.291Z,52.86
2023-02-15T14:25:29.882Z,53.16
2023-02-15T14:28:22.749Z,53.16
2023-02-15T14:30:50.462Z,53.11
2023-02-15T14:33:26.589Z,54.27
2023-02-15T14:35:53.318Z,53.92
2023-02-15T14:38:27.249Z,54.79
2023-02-15T14:41:04.893Z,53.93
2023-02-15T14:43:56.536Z,55.08
2023-02-15T14:46:40.110Z,53.98
2023-02-15T14:49:21.961Z,54.36
2023-02-15T14:51:48.626Z,55.13
2023-02-15T14:54:18.420Z,55.11
2023-02-15T14:56:46.002Z,55.64
2023-02-15T14:59:12.713Z,55.98
2023-02-15T15:01:39.440Z,56.87
2023-02-15T15:04:23.451Z,56.54
2023-02-15T15:07:15.472Z,57.85
2023-02-15T15:09:42.598Z,58.25
2023-02-15T15:12:27.459Z,57.65
2023-02-15T15:14:55.215Z,58.15
2023-02-15T15:17:34.164Z,58.56
2023-02-15T15:20:02.301Z,58.59
2023-02-15T15:22:29.675Z,59.90
2023-02-15T15:25:00.457Z,60.38
2023-02-15T15:27:51.654Z,61.14
2023-02-15T15:30:24.579Z,60.72
2023-02-15T15:32:54.733Z,60.70
2023-02-15T15:35:55.910Z,61.24
2023-02-15T15:38:46.659Z,62.30
2023-02-15T15:41:19.152Z,63.88
2023-02-15T15:43:51.180Z,64.71
2023-02-15T15:46:25.336Z,66.24
2023-02-15T15:48:52.114Z,66.12
2023-02-15T15:51:34.222Z,66.04
2023-02-15T15:54:01.315Z,66.63
2023-02-15T15:56:33.077Z,66.56
2023-02-15T15:59:05.744Z,66.49
2023-02-15T16:01:44.963Z,67.59
2023-02-15T16:04:12.996Z,67.93
2023-02-15T16:06:40.316Z,68.15
2023-02-15T16:09:13.412Z,67.78
2023-02-15T16:11:40.936Z,68.08
2023-02-15T16:14:15.627Z,68.77
2023-02-15T16:16:42.664Z,69.33
2023-02-15T16:19:23.362Z,70.02
2023-02-15T16:21:50.274Z,69.91
2023-02-15T16:24:35.752Z,70.37
2023-02-15T16:27:05.265Z,70.45
2023-02-15T16:29:33.401Z,70.69
2023-02-15T16:32:15.964Z,69.29
2023-02-15T16:35:15.993Z,70.37
2023-02-15T16:37:42.566Z,70.74
2023-02-15T16:40:24.533Z,72.47
2023-02-15T16:42:55.418Z,72.44
2023-02-15T16:45:23.393Z,72.71
2023-02-15T16:47:51.742Z,71.80
2023-02-15T16:50:27.719Z,72.89
2023-02-15T16:52:54.459Z,72.81
2023-02-15T16:55:28.987Z,73.58
2023-02-15T16:57:58.202Z,76.07
2023-02-15T17:00:26.813Z,77.92
2023-02-15T17:03:01.185Z,79.11
2023-02-15T17:05:41.598Z,79.56
2023-02-15T17:08:19.123Z,80.09
2023-02-15T17:10:59.219Z,80.33
2023-02-15T17:13:26.565Z,80.20
2023-02-15T17:15:59.311Z,79.19
2023-02-15T17:18:30.626Z,79.35
2023-02-15T17:21:21.554Z,79.33
2023-02-15T17:23:49.849Z,77.83
2023-02-15T17:26:24.301Z,78.17
2023-02-15T17:28:57.252Z,77.01
2023-02-15T17:31:26.194Z,76.78
2023-02-15T17:33:55.400Z,77.43
2023-02-15T17:36:23.647Z,77.97
2023-02-15T17:38:59.536Z,77.37
2023-02-15T17:41:30.020Z,76.58
2023-02-15T17:43:56.745Z,77.88
2023-02-15T17:46:23.774Z,76.97
2023-02-15T17:48:54.887Z,77.12
2023-02-15T17:51:21.891Z,78.18
2023-02-15T17:54:07.175Z,79.23
2023-02-15T17:56:34.416Z,77.82
2023-02-15T17:59:01.120Z,77.81
2023-02-15T18:01:46.358Z,78.51
2023-02-15T18:04:32.119Z,77.94
2023-02-15T18:07:17.328Z,79.12
2023-02-15T18:10:02.556Z,79.69
2023-02-15T18:12:33.770Z,80.32
2023-02-15T18:15:01.458Z,80.71
2023-02-15T18:17:34.999Z,79.63
2023-02-15T18:20:07.116Z,80.44
2023-02-15T18:22:33.947Z,78.52
2023-02-15T18:25:00.794Z,81.28
2023-02-15T18:27:27.581Z,82.87
2023-02-15T18:29:54.238Z,82.19
2023-02-15T18:32:28.961Z,80.57
2023-02-15T18:34:56.587Z,80.17
2023-02-15T18:37:23.268Z,78.14
2023-02-15T18:39:54.506Z,77.89
2023-02-15T18:42:36.947Z,77.79
2023-02-15T18:45:18.924Z,78.73
2023-02-15T18:47:46.010Z,79.11
2023-02-15T18:50:16.893Z,78.59
2023-02-15T18:52:43.869Z,77.67
2023-02-15T18:55:21.982Z,78.83
2023-02-15T18:57:49.663Z,79.13
2023-02-15T19:00:25.661Z,78.68
2023-02-15T19:02:52.461Z,78.51
2023-02-15T19:05:19.203Z,77.26
2023-02-15T19:07:48.488Z,77.21
2023-02-15T19:10:17.123Z,77.37
2023-02-15T19:12:44.127Z,76.89
2023-02-15T19:15:18.308Z,76.41
2023-02-15T19:17:45.040Z,78.10
2023-02-15T19:20:18.704Z,78.73
2023-02-15T19:22:46.351Z,77.63
2023-02-15T19:25:20.891Z,78.10
2023-02-15T19:27:47.594Z,77.74
2023-02-15T19:30:19.106Z,77.97
2023-02-15T19:32:46.043Z,77.68
2023-02-15T19:35:16.933Z,78.42
2023-02-15T19:37:44.793Z,78.13
2023-02-15T19:40:22.361Z,77.73
2023-02-15T19:42:49.375Z,77.56
2023-02-15T19:45:20.844Z,77.40
2023-02-15T19:47:51.839Z,77.56
2023-02-15T19:50:19.588Z,77.51
2023-02-15T19:52:46.605Z,79.73
2023-02-15T19:55:17.725Z,79.02
2023-02-15T19:57:44.361Z,78.98
2023-02-15T20:00:22.652Z,78.15
2023-02-15T20:02:49.619Z,78.01
2023-02-15T20:05:16.405Z,78.56
2023-02-15T20:07:44.992Z,79.10
2023-02-15T20:10:22.696Z,78.57
2023-02-15T20:12:49.516Z,78.25
2023-02-15T20:15:24.602Z,77.95
2023-02-15T20:17:51.525Z,77.49
2023-02-15T20:20:21.245Z,78.42
2023-02-15T20:22:49.035Z,78.66
2023-02-15T20:25:35.888Z,78.39
2023-02-15T20:28:02.589Z,78.85
2023-02-15T20:30:30.842Z,78.89
2023-02-15T20:32:57.704Z,78.21
2023-02-15T20:35:25.669Z,77.86
2023-02-15T20:37:53.617Z,77.13
2023-02-15T20:40:22.185Z,78.42
2023-02-15T20:42:48.920Z,77.73
2023-02-15T20:45:16.704Z,77.70
2023-02-15T20:47:48.357Z,77.74
2023-02-15T20:50:17.348Z,76.83
2023-02-15T20:52:44.125Z,77.03
2023-02-15T20:55:15.901Z,77.24
2023-02-15T20:57:42.650Z,77.42
2023-02-15T21:00:18.977Z,77.16
2023-02-15T21:02:47.308Z,76.78
2023-02-15T21:05:24.159Z,76.92
2023-02-15T21:07:51.081Z,77.55
2023-02-15T21:10:19.760Z,77.22
2023-02-15T21:12:46.593Z,77.73
2023-02-15T21:15:28.213Z,77.07
2023-02-15T21:17:55.404Z,76.64
2023-02-15T21:20:22.194Z,76.82
2023-02-15T21:22:48.940Z,77.39
2023-02-15T21:25:16.036Z,77.46
2023-02-15T21:27:43.234Z,77.10
2023-02-15T21:30:17.065Z,77.03
2023-02-15T21:32:43.575Z,76.56
2023-02-15T21:35:16.602Z,76.91
2023-02-15T21:37:43.616Z,77.61
2023-02-15T21:40:13.297Z,77.07
2023-02-15T21:42:58.674Z,76.92
2023-02-15T21:45:43.855Z,76.70
2023-02-15T21:48:10.510Z,77.01
2023-02-15T21:50:55.760Z,77.31
2023-02-15T21:53:28.428Z,76.77
2023-02-15T21:55:56.115Z,77.43
2023-02-15T21:58:26.136Z,77.39
2023-02-15T22:00:57.659Z,77.76
2023-02-15T22:03:25.665Z,77.14
2023-02-15T22:05:52.580Z,80.10
2023-02-15T22:08:19.931Z,79.63
2023-02-15T22:10:48.073Z,79.22
2023-02-15T22:13:31.003Z,78.84
2023-02-15T22:15:58.040Z,78.02
2023-02-15T22:18:26.597Z,78.44
2023-02-15T22:20:53.562Z,79.84
2023-02-15T22:23:20.502Z,79.66
2023-02-15T22:25:54.764Z,80.90
2023-02-15T22:28:23.657Z,80.71
2023-02-15T22:30:50.367Z,84.62
2023-02-15T22:33:24.877Z,83.21
2023-02-15T22:35:51.912Z,83.45
2023-02-15T22:38:18.617Z,81.46
2023-02-15T22:40:45.230Z,79.60
2023-02-15T22:43:25.448Z,77.90
2023-02-15T22:45:52.200Z,78.05
2023-02-15T22:48:20.257Z,78.54
2023-02-15T22:50:46.900Z,77.89
2023-02-15T22:53:13.547Z,76.96
2023-02-15T22:55:40.245Z,76.55
2023-02-15T22:58:06.897Z,76.26
2023-02-15T23:00:38.614Z,77.53
2023-02-15T23:03:16.756Z,77.14
2023-02-15T23:05:43.466Z,76.87
2023-02-15T23:08:11.322Z,76.59
2023-02-15T23:10:38.071Z,76.50
2023-02-15T23:13:23.495Z,76.79
2023-02-15T23:15:54.542Z,78.18
2023-02-15T23:18:22.449Z,77.62
2023-02-15T23:21:00.678Z,77.21
2023-02-15T23:23:35.938Z,77.65
2023-02-15T23:26:04.517Z,77.40
2023-02-15T23:28:34.999Z,77.42
2023-02-15T23:31:02.642Z,77.72
2023-02-15T23:33:31.649Z,78.85
2023-02-15T23:35:58.416Z,79.25
2023-02-15T23:38:27.175Z,80.03
2023-02-15T23:41:19.088Z,78.75
2023-02-15T23:43:52.327Z,77.34
2023-02-15T23:46:27.957Z,76.70
2023-02-15T23:48:54.934Z,77.06
2023-02-15T23:51:23.015Z,77.33
2023-02-15T23:53:49.793Z,76.42
2023-02-15T23:56:16.449Z,75.71
2023-02-15T23:58:44.270Z,76.67
